createdAt,value
2023-01-07T00:01:40.165Z,8.70
2023-01-07T00:04:08.129Z,7.28
2023-01-07T00:06:36.881Z,8.50
2023-01-07T00:09:04.582Z,8.75
2023-01-07T00:11:33.814Z,8.10
2023-01-07T00:14:01.092Z,6.85
2023-01-07T00:16:29.933Z,8.57
2023-01-07T00:18:57.751Z,7.13
2023-01-07T00:21:25.383Z,7.93
2023-01-07T00:23:59.838Z,7.88
2023-01-07T00:26:29.354Z,7.13
2023-01-07T00:28:56.143Z,7.60
2023-01-07T00:31:24.959Z,7.47
2023-01-07T00:34:06.755Z,7.32
2023-01-07T00:36:44.633Z,7.55
2023-01-07T00:39:16.685Z,7.90
2023-01-07T00:42:06.644Z,7.70
2023-01-07T00:44:33.631Z,7.38
2023-01-07T00:47:00.987Z,7.40
2023-01-07T00:49:27.788Z,7.05
2023-01-07T00:51:54.837Z,7.15
2023-01-07T00:54:21.564Z,7.03
2023-01-07T00:56:48.653Z,7.50
2023-01-07T00:59:15.399Z,7.03
2023-01-07T01:01:43.014Z,7.57
2023-01-07T01:04:09.807Z,7.15
2023-01-07T01:06:36.906Z,7.82
2023-01-07T01:09:03.813Z,7.47
2023-01-07T01:11:31.181Z,8.07
2023-01-07T01:13:57.895Z,7.63
2023-01-07T01:16:25.021Z,7.50
2023-01-07T01:18:51.892Z,7.45
2023-01-07T01:21:19.269Z,7.07
2023-01-07T01:23:46.208Z,7.07
2023-01-07T01:26:15.131Z,7.53
2023-01-07T01:28:42.157Z,7.15
2023-01-07T01:31:09.401Z,6.78
2023-01-07T01:33:36.301Z,7.68
2023-01-07T01:36:05.307Z,7.55
2023-01-07T01:38:32.064Z,7.35
2023-01-07T01:45:22.148Z,6.40
2023-01-07T01:47:56.877Z,6.68
2023-01-07T01:50:27.977Z,6.95
2023-01-07T01:53:03.609Z,7.88
2023-01-07T01:55:37.771Z,6.70
2023-01-07T01:58:26.030Z,6.68
2023-01-07T02:00:53.189Z,6.65
2023-01-07T02:03:20.397Z,6.82
2023-01-07T02:05:47.472Z,5.88
2023-01-07T02:08:21.918Z,6.55
2023-01-07T02:10:54.912Z,6.45
2023-01-07T02:13:43.369Z,6.80
2023-01-07T02:16:32.696Z,6.88
2023-01-07T02:18:59.630Z,6.75
2023-01-07T02:21:54.315Z,7.07
2023-01-07T02:24:27.120Z,7.40
2023-01-07T02:26:54.149Z,7.22
2023-01-07T02:29:36.164Z,6.72
2023-01-07T02:32:06.320Z,7.47
2023-01-07T02:34:33.065Z,7.47
2023-01-07T02:37:10.422Z,7.43
2023-01-07T02:39:58.358Z,7.88
2023-01-07T02:42:39.924Z,7.38
2023-01-07T02:45:21.129Z,7.20
2023-01-07T02:47:52.400Z,7.57
2023-01-07T02:50:19.259Z,7.20
2023-01-07T02:52:46.508Z,7.63
2023-01-07T02:55:21.749Z,7.30
2023-01-07T02:58:13.087Z,6.63
2023-01-07T03:00:42.852Z,7.22
2023-01-07T03:03:25.783Z,7.35
2023-01-07T03:06:21.934Z,7.13
2023-01-07T03:08:54.955Z,7.25
2023-01-07T03:11:21.697Z,6.68
2023-01-07T03:14:09.730Z,6.60
2023-01-07T03:16:40.569Z,6.63
2023-01-07T03:19:11.203Z,6.50
2023-01-07T03:21:37.963Z,7.03
2023-01-07T03:24:06.243Z,6.97
2023-01-07T03:26:35.345Z,7.25
2023-01-07T03:29:03.003Z,7.05
2023-01-07T03:31:29.971Z,6.90
2023-01-07T03:33:59.837Z,6.50
2023-01-07T03:36:30.578Z,7.50
2023-01-07T03:38:57.692Z,7.10
2023-01-07T03:41:43.057Z,7.03
2023-01-07T03:44:10.075Z,6.97
2023-01-07T03:46:36.815Z,7.13
2023-01-07T03:49:04.119Z,8.07
2023-01-07T03:51:30.871Z,7.32
2023-01-07T03:53:57.943Z,6.72
2023-01-07T03:56:24.729Z,7.88
2023-01-07T03:58:51.778Z,7.85
2023-01-07T04:01:18.646Z,7.35
2023-01-07T04:03:45.715Z,6.93
2023-01-07T04:06:12.572Z,7.07
2023-01-07T04:08:39.660Z,8.02
2023-01-07T04:11:06.419Z,8.20
2023-01-07T04:13:33.511Z,7.80
2023-01-07T04:16:00.258Z,7.85
2023-01-07T04:18:27.271Z,7.13
2023-01-07T04:20:53.998Z,8.02
2023-01-07T04:23:21.019Z,7.43
2023-01-07T04:25:48.501Z,7.85
2023-01-07T04:28:15.727Z,7.97
2023-01-07T04:30:42.569Z,7.88
2023-01-07T04:33:09.768Z,7.75
2023-01-07T04:35:36.570Z,7.70
2023-01-07T04:38:03.620Z,7.78
2023-01-07T04:40:30.413Z,8.52
2023-01-07T04:42:57.432Z,8.30
2023-01-07T04:45:24.157Z,7.75
2023-01-07T04:47:56.434Z,8.55
2023-01-07T04:50:23.811Z,8.65
2023-01-07T04:52:50.879Z,9.27
2023-01-07T04:55:17.743Z,10.63
2023-01-07T04:57:44.835Z,9.95
2023-01-07T05:00:11.953Z,9.52
2023-01-07T05:02:39.017Z,9.18
2023-01-07T05:05:06.075Z,10.18
2023-01-07T05:07:33.181Z,9.52
2023-01-07T05:09:59.942Z,9.65
2023-01-07T05:12:27.019Z,10.73
2023-01-07T05:14:53.753Z,10.82
2023-01-07T05:17:21.409Z,9.73
2023-01-07T05:19:48.214Z,10.90
2023-01-07T05:22:15.255Z,10.90
2023-01-07T05:24:41.961Z,10.98
2023-01-07T05:27:09.033Z,12.13
2023-01-07T05:29:35.791Z,10.55
2023-01-07T05:32:03.005Z,12.48
2023-01-07T05:34:29.810Z,10.73
2023-01-07T05:36:56.898Z,10.90
2023-01-07T05:39:23.733Z,11.85
2023-01-07T05:41:50.776Z,11.77
2023-01-07T05:44:17.537Z,13.18
2023-01-07T05:46:44.665Z,11.95
2023-01-07T05:49:11.431Z,12.02
2023-01-07T05:51:38.498Z,12.82
2023-01-07T05:54:05.274Z,11.88
2023-01-07T05:56:32.427Z,11.45
2023-01-07T05:58:59.170Z,13.18
2023-01-07T06:01:27.124Z,13.60
2023-01-07T06:03:53.938Z,13.00
2023-01-07T06:06:21.014Z,15.35
2023-01-07T06:08:47.755Z,13.18
2023-01-07T06:11:14.814Z,13.90
2023-01-07T06:13:41.593Z,14.63
2023-01-07T06:16:09.415Z,15.18
2023-01-07T06:18:36.311Z,13.52
2023-01-07T06:21:03.559Z,13.35
2023-01-07T06:23:31.394Z,14.65
2023-01-07T06:25:58.481Z,14.48
2023-01-07T06:28:25.249Z,13.88
2023-01-07T06:30:52.461Z,14.15
2023-01-07T06:33:19.333Z,14.77
2023-01-07T06:35:46.648Z,14.90
2023-01-07T06:38:13.378Z,14.63
2023-01-07T06:40:40.432Z,15.15
2023-01-07T06:43:07.169Z,17.50
2023-01-07T06:45:34.187Z,17.25
2023-01-07T06:48:00.979Z,19.27
2023-01-07T06:50:28.005Z,18.75
2023-01-07T06:52:54.803Z,18.00
2023-01-07T06:55:21.825Z,17.42
2023-01-07T06:57:48.604Z,16.33
2023-01-07T07:00:15.825Z,18.30
2023-01-07T07:02:42.649Z,16.83
2023-01-07T07:05:10.876Z,19.02
2023-01-07T07:07:37.608Z,19.17
2023-01-07T07:10:07.547Z,18.73
2023-01-07T07:12:35.319Z,18.67
2023-01-07T07:15:02.417Z,19.17
2023-01-07T07:17:29.238Z,20.17
2023-01-07T07:19:56.317Z,19.98
2023-01-07T07:22:23.067Z,20.52
2023-01-07T07:24:50.099Z,21.17
2023-01-07T07:27:18.011Z,20.92
2023-01-07T07:29:45.086Z,22.38
2023-01-07T07:32:11.909Z,22.52
2023-01-07T07:34:39.093Z,20.98
2023-01-07T07:37:05.855Z,22.38
2023-01-07T07:39:33.750Z,23.25
2023-01-07T07:42:04.464Z,23.13
2023-01-07T07:44:31.580Z,23.40
2023-01-07T07:46:58.371Z,24.98
2023-01-07T07:49:25.445Z,25.60
2023-01-07T07:51:52.314Z,26.67
2023-01-07T07:54:19.408Z,28.48
2023-01-07T07:56:46.176Z,30.73
2023-01-07T07:59:13.204Z,32.13
2023-01-07T08:01:40.100Z,32.13
2023-01-07T08:04:07.347Z,33.13
2023-01-07T08:06:34.370Z,32.33
2023-01-07T08:09:01.508Z,34.17
2023-01-07T08:11:28.255Z,32.75
2023-01-07T08:13:55.344Z,33.63
2023-01-07T08:16:22.317Z,34.15
2023-01-07T08:18:49.467Z,32.53
2023-01-07T08:21:16.264Z,34.05
2023-01-07T08:23:43.463Z,31.65
2023-01-07T08:26:10.231Z,30.58
2023-01-07T08:28:37.696Z,28.92
2023-01-07T08:31:05.354Z,30.02
2023-01-07T08:33:37.590Z,29.65
2023-01-07T08:36:09.400Z,29.90
2023-01-07T08:38:39.172Z,28.75
2023-01-07T08:41:05.934Z,27.73
2023-01-07T08:43:33.538Z,29.67
2023-01-07T08:46:00.259Z,27.30
2023-01-07T08:48:27.351Z,26.48
2023-01-07T08:50:54.349Z,27.70
2023-01-07T08:53:22.071Z,27.63
2023-01-07T08:55:49.278Z,25.77
2023-01-07T08:58:16.357Z,27.88
2023-01-07T09:00:43.132Z,27.27
2023-01-07T09:03:10.287Z,25.23
2023-01-07T09:05:37.045Z,25.83
2023-01-07T09:08:04.396Z,25.13
2023-01-07T09:10:31.188Z,26.55
2023-01-07T09:12:58.349Z,26.02
2023-01-07T09:15:25.192Z,27.85
2023-01-07T09:17:52.315Z,27.50
2023-01-07T09:20:19.331Z,29.63
2023-01-07T09:22:46.504Z,28.02
2023-01-07T09:25:13.341Z,28.02
2023-01-07T09:27:40.679Z,27.35
2023-01-07T09:30:09.457Z,27.40
2023-01-07T09:32:36.701Z,28.58
2023-01-07T09:35:04.712Z,28.80
2023-01-07T09:37:31.963Z,25.83
2023-01-07T09:40:00.394Z,25.15
2023-01-07T09:42:45.976Z,25.67
2023-01-07T09:45:23.735Z,24.60
2023-01-07T09:47:53.386Z,24.95
2023-01-07T09:50:38.555Z,25.13
2023-01-07T09:53:17.917Z,25.25
2023-01-07T09:56:11.030Z,25.77
2023-01-07T09:58:31.734Z,24.17
2023-01-07T10:01:04.614Z,24.05
2023-01-07T10:03:40.880Z,25.83
2023-01-07T10:06:42.304Z,24.33
2023-01-07T10:09:48.214Z,23.15
2023-01-07T10:12:31.492Z,21.60
2023-01-07T10:15:01.912Z,21.77
2023-01-07T10:17:43.993Z,21.85
2023-01-07T10:20:50.130Z,20.80
2023-01-07T10:23:21.714Z,20.85
2023-01-07T10:25:50.476Z,19.67
2023-01-07T10:28:41.156Z,19.13
2023-01-07T10:31:17.825Z,17.95
2023-01-07T10:33:44.603Z,19.17
2023-01-07T10:36:28.920Z,19.15
2023-01-07T10:39:10.865Z,19.30
2023-01-07T10:41:50.603Z,19.63
2023-01-07T10:44:37.634Z,20.08
2023-01-07T10:47:32.299Z,20.55
2023-01-07T10:50:23.958Z,20.08
2023-01-07T10:53:24.999Z,19.80
2023-01-07T10:56:05.014Z,18.15
2023-01-07T10:58:39.832Z,20.33
2023-01-07T11:01:07.569Z,19.55
2023-01-07T11:03:34.806Z,18.67
2023-01-07T11:06:04.935Z,18.75
2023-01-07T11:08:42.320Z,17.88
2023-01-07T11:11:19.594Z,15.55
2023-01-07T11:14:10.018Z,17.00
2023-01-07T11:16:39.729Z,16.92
2023-01-07T11:19:08.193Z,14.10
2023-01-07T11:21:44.694Z,14.27
2023-01-07T11:24:34.651Z,14.00
2023-01-07T11:27:10.697Z,13.80
2023-01-07T11:29:41.594Z,13.98
2023-01-07T11:32:20.745Z,12.95
2023-01-07T11:35:01.884Z,13.98
2023-01-07T11:37:36.496Z,13.88
2023-01-07T11:40:18.259Z,13.95
2023-01-07T11:42:48.866Z,14.65
2023-01-07T11:45:22.075Z,15.35
2023-01-07T11:47:50.283Z,13.15
2023-01-07T11:50:41.122Z,15.73
2023-01-07T11:53:14.074Z,15.32
2023-01-07T11:56:02.555Z,15.02
2023-01-07T11:58:31.530Z,15.55
2023-01-07T12:01:08.045Z,15.77
2023-01-07T12:03:39.992Z,20.30
2023-01-07T12:06:11.667Z,21.90
2023-01-07T12:08:42.210Z,24.35
2023-01-07T12:11:10.493Z,23.00
2023-01-07T12:13:37.638Z,23.00
2023-01-07T12:16:05.918Z,25.20
2023-01-07T12:18:52.066Z,22.48
2023-01-07T12:21:22.179Z,21.35
2023-01-07T12:24:23.085Z,20.95
2023-01-07T12:26:53.069Z,20.27
2023-01-07T12:29:25.753Z,18.40
2023-01-07T12:32:28.162Z,18.50
2023-01-07T12:35:21.457Z,18.92
2023-01-07T12:37:48.602Z,19.45
2023-01-07T12:40:18.372Z,15.90
2023-01-07T12:42:50.927Z,16.98
2023-01-07T12:45:34.788Z,20.10
2023-01-07T12:48:04.476Z,22.42
2023-01-07T12:50:47.008Z,24.60
2023-01-07T12:53:40.752Z,27.38
2023-01-07T12:56:12.937Z,30.20
2023-01-07T12:58:45.339Z,30.27
2023-01-07T13:01:16.124Z,35.70
2023-01-07T13:03:50.683Z,39.67
2023-01-07T13:06:51.552Z,44.10
2023-01-07T13:09:29.586Z,42.17
2023-01-07T13:12:42.559Z,44.97
2023-01-07T13:15:33.699Z,50.85
2023-01-07T13:18:17.517Z,51.90
2023-01-07T13:20:56.850Z,51.72
2023-01-07T13:23:45.527Z,54.65
2023-01-07T13:26:25.998Z,57.05
2023-01-07T13:29:23.619Z,60.22
2023-01-07T13:32:02.840Z,55.28
2023-01-07T13:34:48.367Z,54.88
2023-01-07T13:37:43.009Z,52.33
2023-01-07T13:40:21.823Z,57.60
2023-01-07T13:42:55.648Z,52.88
2023-01-07T13:45:30.181Z,49.83
2023-01-07T13:47:58.947Z,51.10
2023-01-07T13:50:39.789Z,48.03
2023-01-07T13:53:27.714Z,45.42
2023-01-07T13:55:57.872Z,47.83
2023-01-07T13:58:31.122Z,47.75
2023-01-07T14:01:13.850Z,48.28
2023-01-07T14:03:56.277Z,44.92
2023-01-07T14:06:23.974Z,64.45
2023-01-07T14:08:55.230Z,64.03
2023-01-07T14:11:31.114Z,61.17
2023-01-07T14:14:17.785Z,60.60
2023-01-07T14:16:47.626Z,57.38
2023-01-07T14:19:26.880Z,54.90
2023-01-07T14:22:18.361Z,50.83
2023-01-07T14:24:57.858Z,48.95
2023-01-07T14:27:43.036Z,53.38
2023-01-07T14:30:27.304Z,62.97
2023-01-07T14:33:03.918Z,81.32
2023-01-07T14:35:39.649Z,86.75
2023-01-07T14:38:39.446Z,93.43
2023-01-07T14:41:13.354Z,83.13
2023-01-07T14:43:46.104Z,80.63
2023-01-07T14:46:22.420Z,79.28
2023-01-07T14:48:58.111Z,79.18
2023-01-07T14:52:01.156Z,75.63
2023-01-07T14:54:46.809Z,73.70
2023-01-07T14:57:37.144Z,73.78
2023-01-07T15:00:22.891Z,69.45
2023-01-07T15:02:53.226Z,70.53
2023-01-07T15:05:51.057Z,69.22
2023-01-07T15:08:38.421Z,69.65
2023-01-07T15:11:36.964Z,65.68
2023-01-07T15:14:23.935Z,65.43
2023-01-07T15:16:53.602Z,65.50
2023-01-07T15:19:22.040Z,63.15
2023-01-07T15:21:59.357Z,65.47
2023-01-07T15:24:41.805Z,67.07
2023-01-07T15:27:19.488Z,71.10
2023-01-07T15:30:03.937Z,74.57
2023-01-07T15:32:30.740Z,72.50
2023-01-07T15:34:58.120Z,75.30
2023-01-07T15:37:24.876Z,72.35
2023-01-07T15:39:56.461Z,74.32
2023-01-07T15:42:24.410Z,72.85
2023-01-07T15:44:55.943Z,73.25
2023-01-07T15:47:33.735Z,77.85
2023-01-07T15:50:25.024Z,75.30
2023-01-07T15:52:55.048Z,74.78
2023-01-07T15:55:27.640Z,73.20
2023-01-07T15:57:59.749Z,76.95
2023-01-07T16:00:26.858Z,79.95
2023-01-07T16:02:53.751Z,79.90
2023-01-07T16:05:21.039Z,77.53
2023-01-07T16:07:57.735Z,78.20
2023-01-07T16:10:30.049Z,81.38
2023-01-07T16:12:58.437Z,76.43
2023-01-07T16:15:36.223Z,79.65
2023-01-07T16:18:05.096Z,78.90
2023-01-07T16:20:34.915Z,78.75
2023-01-07T16:23:08.740Z,83.22
2023-01-07T16:26:06.375Z,84.97
2023-01-07T16:28:40.976Z,84.63
2023-01-07T16:31:10.907Z,84.38
2023-01-07T16:33:37.865Z,84.93
2023-01-07T16:36:07.290Z,91.65
2023-01-07T16:38:34.091Z,90.60
2023-01-07T16:41:01.222Z,91.32
2023-01-07T16:43:40.334Z,90.75
2023-01-07T16:46:09.491Z,91.10
2023-01-07T16:48:36.380Z,96.00
2023-01-07T16:51:03.514Z,96.88
2023-01-07T16:53:32.299Z,94.07
2023-01-07T16:56:02.507Z,98.75
2023-01-07T16:58:30.659Z,100.03
2023-01-07T17:00:59.844Z,101.40
2023-01-07T17:03:26.837Z,103.38
2023-01-07T17:05:58.790Z,103.25
2023-01-07T17:08:25.758Z,104.88
2023-01-07T17:10:57.968Z,107.18
2023-01-07T17:13:24.707Z,108.30
2023-01-07T17:15:51.821Z,104.28
2023-01-07T17:18:29.059Z,108.35
2023-01-07T17:20:56.176Z,104.90
2023-01-07T17:23:26.287Z,102.72
2023-01-07T17:26:16.821Z,104.82
2023-01-07T17:28:46.269Z,100.57
2023-01-07T17:31:13.391Z,104.93
2023-01-07T17:33:40.207Z,105.90
2023-01-07T17:36:25.414Z,106.85
2023-01-07T17:38:52.933Z,108.07
2023-01-07T17:41:40.099Z,101.40
2023-01-07T17:44:07.993Z,105.88
2023-01-07T17:47:17.810Z,103.60
2023-01-07T17:49:45.332Z,104.65
2023-01-07T17:52:12.453Z,105.63
2023-01-07T17:54:39.167Z,107.07
2023-01-07T17:57:06.204Z,106.30
2023-01-07T17:59:33.114Z,105.53
2023-01-07T18:02:00.688Z,110.72
2023-01-07T18:04:27.638Z,107.93
2023-01-07T18:06:54.718Z,109.13
2023-01-07T18:09:21.541Z,109.82
2023-01-07T18:12:20.995Z,104.47
2023-01-07T18:14:47.845Z,102.47
2023-01-07T18:17:14.901Z,105.85
2023-01-07T18:19:41.692Z,105.25
2023-01-07T18:22:08.842Z,100.30
2023-01-07T18:24:35.653Z,102.35
2023-01-07T18:27:02.707Z,105.97
2023-01-07T18:29:29.441Z,105.75
2023-01-07T18:31:56.605Z,104.00
2023-01-07T18:34:23.447Z,105.18
2023-01-07T18:36:50.572Z,106.55
2023-01-07T18:39:19.645Z,108.20
2023-01-07T18:41:48.834Z,114.20
2023-01-07T18:44:17.123Z,119.72
2023-01-07T18:46:44.231Z,121.35
2023-01-07T18:49:11.595Z,114.05
2023-01-07T18:51:38.661Z,115.72
2023-01-07T18:54:06.036Z,114.53
2023-01-07T18:56:33.101Z,114.00
2023-01-07T18:58:59.856Z,120.18
2023-01-07T19:01:27.030Z,114.40
2023-01-07T19:03:54.010Z,114.57
2023-01-07T19:06:21.135Z,115.03
2023-01-07T19:08:47.899Z,111.32
2023-01-07T19:11:15.127Z,113.43
2023-01-07T19:13:42.077Z,112.63
2023-01-07T19:16:12.656Z,111.43
2023-01-07T19:18:39.540Z,110.78
2023-01-07T19:21:08.361Z,112.55
2023-01-07T19:23:35.152Z,111.45
2023-01-07T19:26:03.781Z,110.50
2023-01-07T19:28:32.688Z,110.25
2023-01-07T19:30:59.808Z,105.22
2023-01-07T19:33:26.653Z,106.68
2023-01-07T19:36:03.952Z,101.70
2023-01-07T19:38:30.868Z,103.97
2023-01-07T19:40:58.100Z,104.07
2023-01-07T19:43:24.955Z,99.85
2023-01-07T19:45:55.968Z,103.78
2023-01-07T19:48:23.115Z,105.45
2023-01-07T19:50:54.867Z,103.60
2023-01-07T19:53:21.821Z,99.70
2023-01-07T19:55:48.952Z,98.95
2023-01-07T19:58:16.488Z,100.35
2023-01-07T20:00:43.936Z,98.93
2023-01-07T20:03:10.969Z,99.22
2023-01-07T20:05:38.438Z,97.45
2023-01-07T20:08:05.278Z,92.95
2023-01-07T20:10:32.387Z,92.15
2023-01-07T20:12:59.236Z,91.28
2023-01-07T20:15:26.441Z,87.90
2023-01-07T20:17:53.220Z,87.53
2023-01-07T20:20:20.374Z,89.28
2023-01-07T20:22:48.600Z,87.95
2023-01-07T20:25:15.763Z,87.18
2023-01-07T20:27:42.580Z,86.85
2023-01-07T20:30:11.028Z,84.65
2023-01-07T20:32:37.895Z,84.22
2023-01-07T20:35:05.480Z,82.22
2023-01-07T20:37:32.361Z,83.40
2023-01-07T20:39:59.493Z,81.70
2023-01-07T20:42:27.130Z,81.35
2023-01-07T20:44:54.269Z,82.63
2023-01-07T20:47:21.111Z,83.82
2023-01-07T20:49:48.237Z,79.88
2023-01-07T20:52:15.077Z,80.28
2023-01-07T20:54:42.184Z,79.22
2023-01-07T20:57:09.033Z,74.80
2023-01-07T20:59:36.209Z,77.47
2023-01-07T21:02:03.055Z,78.03
2023-01-07T21:04:30.465Z,77.45
2023-01-07T21:06:57.412Z,76.45
2023-01-07T21:09:24.552Z,77.20
2023-01-07T21:11:51.355Z,74.15
2023-01-07T21:14:18.540Z,77.20
2023-01-07T21:16:45.398Z,73.90
2023-01-07T21:19:12.603Z,75.57
2023-01-07T21:21:39.348Z,76.63
2023-01-07T21:24:06.804Z,75.40
2023-01-07T21:26:33.818Z,73.25
2023-01-07T21:29:00.910Z,73.78
2023-01-07T21:31:34.855Z,75.72
2023-01-07T21:34:01.977Z,73.07
2023-01-07T21:36:28.762Z,71.55
2023-01-07T21:38:57.462Z,71.93
2023-01-07T21:41:24.571Z,70.47
2023-01-07T21:43:51.688Z,70.95
2023-01-07T21:46:19.096Z,68.15
2023-01-07T21:48:47.194Z,72.15
2023-01-07T21:51:32.198Z,69.45
2023-01-07T21:53:59.373Z,68.82
2023-01-07T21:56:27.567Z,68.30
2023-01-07T21:58:54.694Z,67.30
2023-01-07T22:01:21.694Z,69.95
2023-01-07T22:03:49.480Z,68.22
2023-01-07T22:06:21.474Z,65.55
2023-01-07T22:08:48.855Z,65.53
2023-01-07T22:11:17.113Z,67.43
2023-01-07T22:13:44.188Z,65.93
2023-01-07T22:16:10.989Z,63.83
2023-01-07T22:18:38.149Z,61.65
2023-01-07T22:21:05.022Z,62.58
2023-01-07T22:23:32.081Z,65.15
2023-01-07T22:26:05.395Z,61.90
2023-01-07T22:28:33.542Z,62.40
2023-01-07T22:31:01.704Z,62.20
2023-01-07T22:33:28.807Z,60.10
2023-01-07T22:35:56.492Z,58.58
2023-01-07T22:38:23.631Z,57.92
2023-01-07T22:40:50.495Z,59.15
2023-01-07T22:43:18.043Z,58.50
2023-01-07T22:45:54.086Z,58.55
2023-01-07T22:48:23.959Z,57.72
2023-01-07T22:50:55.620Z,58.95
2023-01-07T22:53:22.744Z,55.50
2023-01-07T22:55:49.561Z,58.85
2023-01-07T22:58:17.086Z,55.53
2023-01-07T23:00:52.539Z,53.08
2023-01-07T23:03:20.277Z,54.95
2023-01-07T23:05:47.116Z,55.15
2023-01-07T23:08:14.198Z,52.55
2023-01-07T23:10:41.248Z,53.78
2023-01-07T23:13:08.424Z,53.78
2023-01-07T23:15:35.591Z,53.53
2023-01-07T23:18:03.215Z,51.17
2023-01-07T23:20:30.123Z,50.92
2023-01-07T23:22:57.209Z,50.78
2023-01-07T23:25:24.016Z,48.95
2023-01-07T23:27:51.157Z,49.75
2023-01-07T23:30:18.099Z,49.58
2023-01-07T23:32:45.344Z,49.33
2023-01-07T23:35:12.538Z,47.30
2023-01-07T23:37:39.722Z,49.65
2023-01-07T23:40:07.351Z,46.10
2023-01-07T23:42:34.704Z,47.78
2023-01-07T23:45:01.559Z,45.08
2023-01-07T23:47:28.669Z,45.92
2023-01-07T23:49:55.493Z,45.65
2023-01-07T23:52:22.530Z,43.20
2023-01-07T23:54:49.356Z,44.22
2023-01-07T23:57:16.536Z,44.40
2023-01-07T23:59:43.946Z,42.95
